Latest Weather Observations for Yanco

IDN60801

Issued at 9:32 pm EDT Monday 20 February 2017 (issued every 30 minutes, with the page automatically refreshed every 10 minutes)

About weather observations | Map of weather stations | Latest weather observations for NSW | Other Formats
Station Details ID: 074037 Name: YANCO AGRICULTURAL INSTITUTE Lat: -34.62 Lon: 146.43 Height: 164.0 m
Data from the previous 72 hours. | See also: Recent months at Yanco
Date/Time
EDT
Temp
°C
App
Temp
°C
Dew
Point
°C
Rel
Hum
%
Delta-T
°C
Wind Press
QNH
hPa
Press
MSL
hPa
Rain since
9am
mm
Dir  Spd
km/h
Gust
km/h
Spd
kts
Gust
kts
20/09:30pm 17.0 14.0 4.0 42 6.1 S 9 13 5 7 - - 0.0
20/09:00pm 17.2 14.1 3.5 40 6.4 S 9 11 5 6 - - 0.0
20/08:30pm 18.1 14.9 3.2 37 7.0 S 9 15 5 8 - - 0.0
20/08:00pm 19.3 15.7 3.1 34 7.6 S 11 15 6 8 - - 0.0
20/07:30pm 21.3 17.3 2.6 29 8.9 SSW 13 19 7 10 - - 0.0
20/07:00pm 22.0 17.9 2.2 27 9.4 SSW 13 17 7 9 - - 0.0
20/06:30pm 22.9 19.6 2.4 26 9.8 WSW 9 17 5 9 - - 0.0
20/06:00pm 22.7 19.5 2.8 27 9.6 SW 9 17 5 9 - - 0.0
20/05:30pm 23.1 18.6 2.0 25 10.0 SW 15 20 8 11 - - 0.0
20/05:00pm 22.5 18.4 2.1 26 9.7 W 13 24 7 13 - - 0.0
20/04:30pm 22.9 18.4 2.4 26 9.8 WSW 15 24 8 13 - - 0.0
20/04:00pm 23.1 18.9 3.6 28 9.5 WSW 15 26 8 14 - - 0.0
20/03:30pm 22.7 17.6 3.3 28 9.4 SW 19 30 10 16 - - 0.0
20/03:00pm 22.6 18.7 3.2 28 9.4 WSW 13 24 7 13 - - 0.0
20/02:30pm 21.5 16.4 3.2 30 8.8 WSW 19 32 10 17 - - 0.0
20/02:00pm 20.7 15.7 3.4 32 8.3 WSW 19 33 10 18 - - 0.0
20/01:30pm 20.9 16.4 4.0 33 8.2 SW 17 35 9 19 - - 0.0
20/01:00pm 19.8 14.9 4.3 36 7.5 WSW 19 33 10 18 - - 0.0
20/12:30pm 19.6 14.6 4.5 37 7.3 SW 20 32 11 17 - - 0.0
20/12:00pm 18.8 14.4 4.9 40 6.8 WSW 17 26 9 14 - - 0.0
20/11:30am 18.2 13.4 4.4 40 6.6 WSW 19 28 10 15 - - 0.0
20/11:00am 17.2 13.4 5.8 47 5.6 WSW 15 24 8 13 - - 0.0
20/10:30am 16.6 12.8 5.6 48 5.3 SW 15 24 8 13 - - 0.0
20/10:00am 15.3 11.2 6.1 54 4.5 WSW 17 24 9 13 - - 0.0
20/09:30am 14.0 9.9 6.4 60 3.7 SW 17 22 9 12 - - 0.0
20/09:00am 12.9 9.7 6.9 67 2.9 SW 13 19 7 10 - - 0.0
20/08:30am 11.5 8.6 6.4 71 2.4 WSW 11 15 6 8 - - 0.0
20/08:00am 10.4 8.3 6.7 78 1.8 WSW 7 13 4 7 - - 0.0
20/07:30am 8.7 7.1 6.3 85 1.1 SW 4 6 2 3 - - 0.0
20/07:00am 8.5 6.3 6.1 85 1.1 SW 7 9 4 5 - - 0.0
20/06:30am 8.8 6.2 6.3 84 1.2 SW 9 13 5 7 - - 0.0
20/06:00am 9.0 6.5 6.4 84 1.2 SW 9 13 5 7 - - 0.0
20/05:30am 9.4 6.9 6.7 83 1.3 SW 9 15 5 8 - - 0.0
20/05:00am 9.7 7.3 7.0 83 1.3 SW 9 13 5 7 - - 0.0
20/04:30am 9.7 7.6 6.8 82 1.4 SW 7 9 4 5 - - 0.0
20/04:00am 10.0 7.6 6.9 81 1.5 WSW 9 9 5 5 - - 0.0
20/03:30am 10.3 7.9 7.2 81 1.5 SW 9 11 5 6 - - 0.0
20/03:00am 10.6 8.6 7.3 80 1.6 WSW 7 9 4 5 - - 0.0
20/02:30am 11.0 9.2 7.1 77 1.9 SW 6 7 3 4 - - 0.0
20/02:00am 12.1 10.4 7.6 74 2.2 WSW 6 7 3 4 - - 0.0
20/01:30am 12.6 10.7 7.7 72 2.4 SSW 7 11 4 6 - - 0.0
20/01:00am 12.8 10.1 7.5 70 2.6 SSW 11 20 6 11 - - 0.0
20/12:30am 12.9 8.3 8.2 73 2.3 S 22 30 12 16 - - 0.0
20/12:00am 14.8 11.0 9.2 69 2.9 SSW 19 30 10 16 - - 0.0
 
Date/Time
EDT
Temp
°C
App
Temp
°C
Dew
Point
°C
Rel
Hum
%
Delta-T
°C
Wind Press
QNH
hPa
Press
MSL
hPa
Rain since
9am
mm
Dir  Spd
km/h
Gust
km/h
Spd
kts
Gust
kts
19/11:30pm 15.4 11.6 8.9 65 3.3 SW 19 26 10 14 - - 0.0
19/11:00pm 16.0 11.5 8.7 62 3.8 SW 22 33 12 18 - - 0.0
19/10:30pm 17.4 13.0 7.5 52 5.0 WSW 20 32 11 17 - - 0.0
19/10:00pm 17.6 13.3 6.8 49 5.4 WSW 19 30 10 16 - - 0.0
19/09:30pm 18.4 13.5 4.9 41 6.5 WSW 20 30 11 16 - - 0.0
19/09:00pm 18.2 15.2 4.0 39 6.8 WNW 9 13 5 7 - - 0.0
19/08:30pm 18.1 15.0 3.6 38 6.8 WNW 9 11 5 6 - - 0.0
19/08:00pm 18.7 15.5 2.9 35 7.4 WNW 9 13 5 7 - - 0.0
19/07:30pm 20.0 14.6 2.4 31 8.2 W 20 28 11 15 - - 0.0
19/07:00pm 21.0 15.7 2.8 30 8.6 W 20 33 11 18 - - 0.0
19/06:30pm 21.2 16.4 2.5 29 8.8 W 17 26 9 14 - - 0.0
19/06:00pm 22.1 17.0 2.8 28 9.2 W 19 32 10 17 - - 0.0
19/05:30pm 21.9 16.2 2.6 28 9.2 WSW 22 35 12 19 - - 0.0
19/05:00pm 22.4 16.5 2.0 26 9.6 W 22 35 12 19 - - 0.0
19/04:30pm 23.5 18.0 1.8 24 10.3 W 20 33 11 18 - - 0.0
19/04:00pm 23.6 18.4 2.4 25 10.2 W 19 35 10 19 - - 0.0
19/03:30pm 22.2 17.6 1.8 26 9.6 WNW 15 24 8 13 - - 0.0
19/03:00pm 21.9 17.9 3.1 29 9.0 W 13 22 7 12 - - 0.0
19/02:30pm 22.3 17.9 2.9 28 9.3 W 15 28 8 15 - - 0.0
19/02:00pm 21.6 16.4 2.3 28 9.1 WNW 19 30 10 16 - - 0.0
19/01:30pm 20.7 16.4 3.0 31 8.4 W 15 26 8 14 - - 0.0
19/01:00pm 19.8 15.4 2.6 32 8.1 W 15 22 8 12 - - 0.0
19/12:30pm 19.2 14.4 2.6 33 7.7 W 17 26 9 14 - - 0.0
19/12:00pm 18.7 14.3 2.9 35 7.4 WSW 15 24 8 13 - - 0.0
19/11:30am 19.2 15.2 3.0 34 7.6 WSW 13 20 7 11 - - 0.0
19/11:00am 19.2 14.5 3.0 34 7.6 SW 17 26 9 14 - - 0.0
19/10:30am 17.9 14.6 4.8 42 6.3 SW 11 20 6 11 - - 0.0
19/10:00am 17.4 14.2 5.0 44 6.0 SW 11 15 6 8 - - 0.0
19/09:30am 15.8 12.6 5.1 49 5.1 SW 11 15 6 8 - - 0.0
19/09:00am 14.0 11.5 4.9 54 4.3 SW 7 11 4 6 - - 0.0
19/08:30am 13.0 10.4 4.2 55 4.0 WSW 7 11 4 6 - - 0.0
19/08:00am 11.6 9.9 4.1 60 3.4 WSW 2 7 1 4 - - 0.0
19/07:30am 9.8 7.6 3.5 65 2.8 SSW 4 6 2 3 - - 0.0
19/07:00am 9.2 6.6 3.4 67 2.5 S 6 7 3 4 - - 0.0
19/06:30am 9.2 6.0 3.0 65 2.7 SSW 9 11 5 6 - - 0.0
19/06:00am 10.0 6.8 3.3 63 2.9 SSW 9 15 5 8 - - 0.0
19/05:30am 10.5 7.3 3.1 60 3.2 SW 9 13 5 7 - - 0.0
19/05:00am 10.3 7.0 2.7 59 3.3 SW 9 11 5 6 - - 0.0
19/04:30am 10.9 7.6 2.5 56 3.6 SW 9 11 5 6 - - 0.0
19/04:00am 11.3 8.0 2.3 54 3.9 SSW 9 13 5 7 - - 0.0
19/03:30am 11.7 8.4 2.5 53 4.0 SW 9 11 5 6 - - 0.0
19/03:00am 11.6 8.6 2.1 52 4.1 SW 7 11 4 6 - - 0.0
19/02:30am 12.1 8.7 1.7 49 4.5 SW 9 13 5 7 - - 0.0
19/02:00am 13.1 9.3 1.5 45 5.0 SW 11 13 6 7 - - 0.0
19/01:30am 13.6 9.7 0.9 42 5.4 SW 11 13 6 7 - - 0.0
19/01:00am 14.0 10.0 0.6 40 5.7 WSW 11 13 6 7 - - 0.0
19/12:30am 14.0 10.4 0.6 40 5.7 WSW 9 15 5 8 - - 0.0
19/12:00am 14.2 11.0 0.5 39 5.9 WSW 7 9 4 5 - - 0.0
 
Date/Time
EDT
Temp
°C
App
Temp
°C
Dew
Point
°C
Rel
Hum
%
Delta-T
°C
Wind Press
QNH
hPa
Press
MSL
hPa
Rain since
9am
mm
Dir  Spd
km/h
Gust
km/h
Spd
kts
Gust
kts
18/11:30pm 14.9 10.8 0.0 36 6.3 SW 11 13 6 7 - - 0.0
18/11:00pm 16.0 11.5 -0.2 33 6.9 SW 13 17 7 9 - - 0.0
18/10:30pm 16.8 12.3 0.0 32 7.3 SW 13 17 7 9 - - 0.0
18/10:00pm 17.5 13.0 -0.2 30 7.7 SW 13 19 7 10 - - 0.0
18/09:30pm 18.6 13.4 0.2 29 8.1 SW 17 28 9 15 - - 0.0
18/09:00pm 19.5 14.0 0.5 28 8.5 SW 19 24 10 13 - - 0.0
18/08:30pm 19.9 15.1 0.4 27 8.7 WSW 15 20 8 11 - - 0.0
18/08:00pm 20.2 16.0 1.6 29 8.6 WSW 13 19 7 10 - - 0.0
18/07:30pm 20.9 16.5 2.7 30 8.6 WSW 15 19 8 10 - - 0.0
18/07:00pm 20.7 16.0 3.0 31 8.4 WSW 17 24 9 13 - - 0.0
18/06:30pm 21.7 16.1 3.4 30 8.8 WSW 22 32 12 17 - - 0.0
18/06:00pm 21.7 14.0 3.4 30 8.8 SW 33 41 18 22 - - 0.0
18/05:30pm 23.6 17.0 4.0 28 9.7 SW 28 39 15 21 - - 0.0
18/05:00pm 24.0 17.6 3.3 26 10.1 SW 26 35 14 19 - - 0.0
18/04:30pm 24.6 18.3 3.8 26 10.3 W 26 35 14 19 - - 0.0
18/04:00pm 24.9 19.8 4.1 26 10.4 SW 20 37 11 20 - - 0.0
18/03:30pm 24.6 18.3 3.8 26 10.3 WSW 26 43 14 23 - - 0.0
18/03:00pm 25.0 18.5 4.7 27 10.3 SW 28 37 15 20 - - 0.0
18/02:30pm 24.1 17.7 5.0 29 9.7 WSW 28 41 15 22 - - 0.0
18/02:00pm 24.9 19.0 5.7 29 9.9 W 26 37 14 20 - - 0.0
18/01:30pm 24.4 18.9 5.7 30 9.6 WSW 24 35 13 19 - - 0.0
18/01:00pm 23.7 17.5 6.0 32 9.1 WSW 28 41 15 22 - - 0.0
18/12:30pm 23.6 17.5 6.8 34 8.7 SW 28 41 15 22 - - 0.0
18/12:00pm 23.0 18.1 8.3 39 7.8 WSW 24 33 13 18 - - 0.0
18/11:30am 22.4 17.5 8.5 41 7.4 WSW 24 35 13 19 - - 0.0
18/11:00am 22.2 18.0 9.7 45 6.8 SW 22 33 12 18 - - 0.0
18/10:30am 21.4 17.4 10.3 49 6.1 SW 22 32 12 17 - - 0.0
18/10:00am 20.9 16.6 9.2 47 6.3 WSW 22 30 12 16 - - 0.0
18/09:30am 20.3 17.0 11.0 55 5.1 SW 19 28 10 15 - - 0.0
18/09:00am 19.5 16.7 11.3 59 4.5 SW 17 24 9 13 - - 0.0
18/08:30am 18.4 16.7 11.2 63 3.9 SW 11 15 6 8 - - 0.0
18/08:00am 17.4 16.6 11.0 66 3.5 WSW 6 11 3 6 - - 0.0
18/07:30am 16.2 15.4 10.9 71 2.9 WSW 6 7 3 4 - - 0.0
18/07:00am 15.6 14.6 10.4 71 2.8 W 6 9 3 5 - - 0.0
18/06:30am 15.7 14.6 10.0 69 3.0 W 6 9 3 5 - - 0.0
18/06:00am 16.3 14.9 9.7 65 3.5 SW 7 9 4 5 - - 0.0
18/05:30am 16.8 15.1 9.7 63 3.7 SW 9 15 5 8 - - 0.0
18/05:00am 16.9 13.9 9.3 61 4.0 SW 15 17 8 9 - - 0.0
18/04:30am 17.4 14.7 9.1 58 4.3 SW 13 19 7 10 - - 0.0
18/04:00am 17.8 14.6 8.6 55 4.8 SW 15 20 8 11 - - 0.0
18/03:30am 18.2 15.3 8.2 52 5.2 SW 13 19 7 10 - - 0.0
18/03:00am 19.0 16.2 8.4 50 5.5 SW 13 20 7 11 - - 0.0
18/02:30am 19.6 16.4 8.3 48 5.9 SW 15 20 8 11 - - 0.0
18/02:00am 19.9 16.6 7.9 46 6.2 SW 15 20 8 11 - - 0.0
18/01:30am 20.8 16.7 7.8 43 6.8 SW 19 28 10 15 - - 0.0
18/01:00am 21.6 16.7 7.1 39 7.5 SW 22 30 12 16 - - 0.0
18/12:30am 22.4 17.9 7.0 37 8.0 SW 20 32 11 17 - - 0.0
18/12:00am 22.8 18.3 7.0 36 8.2 SW 20 30 11 16 - - 0.0
 
Date/Time
EDT
Temp
°C
App
Temp
°C
Dew
Point
°C
Rel
Hum
%
Delta-T
°C
Wind Press
QNH
hPa
Press
MSL
hPa
Rain since
9am
mm
Dir  Spd
km/h
Gust
km/h
Spd
kts
Gust
kts
17/11:30pm 23.0 18.1 6.7 35 8.4 SW 22 28 12 15 - - 0.0
17/11:00pm 23.7 19.3 6.5 33 8.9 SW 19 26 10 14 - - 0.0
17/10:30pm 24.0 20.3 6.3 32 9.2 SW 15 19 8 10 - - 0.0
17/10:00pm 24.6 21.1 5.4 29 9.8 SW 13 17 7 9 - - 0.0

Other Formats:

Comma delimited format used in spreadsheet applications
http://www.bom.gov.au/fwo/IDN60801/IDN60801.95705.axf

JavaScript Object Notation format (JSON) in row-major order
http://www.bom.gov.au/fwo/IDN60801/IDN60801.95705.json